マイアミ の空港の天気 - METARとTAF

マイアミ国際空港 ( KMIA / MIA ) - アメリカ フロリダ州マイアミ
飛行場実況気象(Metar)
観測時間08/17 06:53 EDT (08/17 10:53 UTC)
風向・風速静穏 0m/s
視程10km以上
天気現象
全天の4割程度の雲 雲底高度 3050m
全天の8割程度の雲 雲底高度 7620m
気温26.7℃
湿度71%
気圧1018.2hPa
METARKMIA 171053Z 00000KT 10SM SCT100 BKN250 27/21 A3007 RMK AO2 SLP182 T02670211
過去の天気等 Google飛行場航空写真 Wunderground天気予報

過去48時間のMETAR

飛行場予報(TAF)
発表時間: 8/17 04:58 EDT (8/17 08:58 UTC)
予報対象時間: 17日5時 EDT ~ 18日8時 EDT
風向・風速不定 2m/s
視程10km以上
全天の4割程度の雲 雲底高度 1220m
全天の8割程度の雲 雲底高度 7620m
17日10時 EDT から
風向・風速南南東 4m/s
視程10km以上
全天の4割程度の雲 雲底高度 1220m
全天の8割程度の雲 雲底高度 7620m
17日20時 EDT から
風向・風速不定 2m/s
視程10km以上
全天の4割程度の雲 雲底高度 910m
全天の8割程度の雲 雲底高度 4570m
KMIA 170858Z 1709/1812 VRB03KT P6SM SCT040 BKN250
FM171400 15008KT P6SM SCT040 BKN250
FM180000 VRB03KT P6SM SCT030 BKN150